Ayr, North Dakota
Current Conditions -  °F | °C
As of 7:55 PM on Saturday 20 Dec 2014 (Local Time) from KBAC Reporting Station
Haze Haze  
Wind Chill: 18°   Ceiling: 300
Heat Index: 28°   Visibility: 2.5mi
Dew Point: 28°   Wind: 12mph
Humidity: 100%   Direction: 190°S
Pressure: 29.87"   Gusts: NA
Location:  47.04°N, 97.49°W
Report Text: KBAC 210155Z AUTO 19010KT 2 1/2SM BR OVC003 M02/M02 A2987 RMK AO2
Loading
Personal Weather Stations






























Interactive Weather Map New forecast layout! Learn more

10-Day Weather Forecast

Advertisements
Track Severe Weather on mobile